Terminal Aerodrome Forecast
Issued by NWS Missoula, MT

Home | Current Version | Previous Version | Text Only | Print | Product List | Glossary On
Versions: 1 2 3 4 5 6 7 8 9 10 11 12 13
969
FTUS45 KMSO 251120
TAFBTM
TAF
KBTM 251120Z 2512/2612 14005KT P6SM SKC
     FM252100 31006KT P6SM VCSH SCT090
     FM252200 31008KT P6SM VCTS BKN070CB
     FM260100 33008KT P6SM VCSH SCT080=

USA.gov is the U.S. government's official web portal to all federal, state and local government web resources and services.